Nouveau site internet !.

Nouveau site internet !.

Bienvenue sur notre nouveau site internet !
Vous pouvez désormais commander votre vol à sensation ou d’initiation directement en ligne !

Patrouille Sparflex - figure aérienne - Fly and Fun

Voir toute les actualités.

Patrouille Sparflex - figure aérienne - Fly and Fun
Patrouille Sparflex - figure aérienne - Fly and Fun
METAR :

LFQA 031630Z AUTO 05007KT 9999 RA FEW033/// SCT054/// BKN078/// ///TCU 19/14 Q1001


vue en direct sur l'aérodrome
mentions légales politique de confidentialité
Cochet Concept
cx